sensor_id;sensor_type;location;lat;lon;timestamp;P1;durP1;ratioP1;P2;durP2;ratioP2
23290;SDS011;11814;44.686;10.842;2023-12-14T00:01:57;81.18;;;41.85;;
23290;SDS011;11814;44.686;10.842;2023-12-14T00:04:23;87.40;;;44.72;;
23290;SDS011;11814;44.686;10.842;2023-12-14T00:06:49;77.93;;;41.67;;
23290;SDS011;11814;44.686;10.842;2023-12-14T00:09:14;81.03;;;43.08;;
23290;SDS011;11814;44.686;10.842;2023-12-14T00:11:40;81.07;;;43.25;;
23290;SDS011;11814;44.686;10.842;2023-12-14T00:14:06;84.30;;;41.72;;
23290;SDS011;11814;44.686;10.842;2023-12-14T00:16:31;84.38;;;44.92;;
23290;SDS011;11814;44.686;10.842;2023-12-14T00:18:57;88.70;;;44.63;;
23290;SDS011;11814;44.686;10.842;2023-12-14T00:21:23;86.63;;;43.53;;
23290;SDS011;11814;44.686;10.842;2023-12-14T00:23:49;84.22;;;42.25;;
23290;SDS011;11814;44.686;10.842;2023-12-14T00:26:14;80.38;;;43.80;;
23290;SDS011;11814;44.686;10.842;2023-12-14T00:28:40;79.50;;;42.40;;
23290;SDS011;11814;44.686;10.842;2023-12-14T00:31:06;88.45;;;44.13;;
23290;SDS011;11814;44.686;10.842;2023-12-14T00:33:31;82.15;;;42.78;;
23290;SDS011;11814;44.686;10.842;2023-12-14T00:35:57;92.07;;;44.92;;
23290;SDS011;11814;44.686;10.842;2023-12-14T00:38:23;89.05;;;45.83;;
23290;SDS011;11814;44.686;10.842;2023-12-14T00:40:48;84.97;;;44.22;;
23290;SDS011;11814;44.686;10.842;2023-12-14T00:43:14;86.22;;;45.20;;
23290;SDS011;11814;44.686;10.842;2023-12-14T00:45:40;89.03;;;46.53;;
23290;SDS011;11814;44.686;10.842;2023-12-14T00:48:06;96.22;;;47.03;;
23290;SDS011;11814;44.686;10.842;2023-12-14T00:50:32;99.55;;;48.65;;
23290;SDS011;11814;44.686;10.842;2023-12-14T00:52:57;95.35;;;47.80;;
23290;SDS011;11814;44.686;10.842;2023-12-14T00:55:23;101.30;;;47.38;;
23290;SDS011;11814;44.686;10.842;2023-12-14T00:57:49;100.85;;;47.75;;
23290;SDS011;11814;44.686;10.842;2023-12-14T01:00:15;97.13;;;49.20;;
23290;SDS011;11814;44.686;10.842;2023-12-14T01:02:40;107.90;;;49.17;;
23290;SDS011;11814;44.686;10.842;2023-12-14T01:05:06;101.72;;;50.65;;
23290;SDS011;11814;44.686;10.842;2023-12-14T01:07:32;108.43;;;50.00;;
23290;SDS011;11814;44.686;10.842;2023-12-14T01:09:58;95.50;;;48.58;;
23290;SDS011;11814;44.686;10.842;2023-12-14T01:12:23;92.35;;;48.50;;
23290;SDS011;11814;44.686;10.842;2023-12-14T01:14:49;93.57;;;48.28;;
23290;SDS011;11814;44.686;10.842;2023-12-14T01:17:14;89.25;;;46.60;;
23290;SDS011;11814;44.686;10.842;2023-12-14T01:19:40;90.75;;;47.92;;
23290;SDS011;11814;44.686;10.842;2023-12-14T01:22:06;95.65;;;48.60;;
23290;SDS011;11814;44.686;10.842;2023-12-14T01:24:32;96.75;;;47.50;;
23290;SDS011;11814;44.686;10.842;2023-12-14T01:26:58;94.35;;;48.92;;
23290;SDS011;11814;44.686;10.842;2023-12-14T01:29:23;89.97;;;47.53;;
23290;SDS011;11814;44.686;10.842;2023-12-14T01:31:49;92.05;;;48.75;;
23290;SDS011;11814;44.686;10.842;2023-12-14T01:34:14;86.35;;;45.70;;
23290;SDS011;11814;44.686;10.842;2023-12-14T01:36:40;83.72;;;44.75;;
23290;SDS011;11814;44.686;10.842;2023-12-14T01:39:06;90.80;;;46.13;;
23290;SDS011;11814;44.686;10.842;2023-12-14T01:41:32;89.60;;;45.13;;
23290;SDS011;11814;44.686;10.842;2023-12-14T01:43:58;101.13;;;49.33;;
23290;SDS011;11814;44.686;10.842;2023-12-14T01:46:23;102.47;;;49.13;;
23290;SDS011;11814;44.686;10.842;2023-12-14T01:48:49;104.10;;;50.20;;
23290;SDS011;11814;44.686;10.842;2023-12-14T01:51:17;104.85;;;50.60;;
23290;SDS011;11814;44.686;10.842;2023-12-14T01:53:42;104.40;;;49.20;;
23290;SDS011;11814;44.686;10.842;2023-12-14T01:56:08;97.07;;;48.03;;
23290;SDS011;11814;44.686;10.842;2023-12-14T01:58:34;92.45;;;46.50;;
23290;SDS011;11814;44.686;10.842;2023-12-14T02:01:20;95.60;;;48.10;;
23290;SDS011;11814;44.686;10.842;2023-12-14T02:04:00;87.20;;;44.80;;
23290;SDS011;11814;44.686;10.842;2023-12-14T02:06:26;89.72;;;46.47;;
23290;SDS011;11814;44.686;10.842;2023-12-14T02:08:52;83.30;;;44.53;;
23290;SDS011;11814;44.686;10.842;2023-12-14T02:11:18;88.80;;;46.00;;
23290;SDS011;11814;44.686;10.842;2023-12-14T02:13:43;93.78;;;46.08;;
23290;SDS011;11814;44.686;10.842;2023-12-14T02:16:09;104.00;;;49.53;;
23290;SDS011;11814;44.686;10.842;2023-12-14T02:18:35;95.20;;;46.50;;
23290;SDS011;11814;44.686;10.842;2023-12-14T02:21:00;95.57;;;47.63;;
23290;SDS011;11814;44.686;10.842;2023-12-14T02:23:26;87.95;;;45.20;;
23290;SDS011;11814;44.686;10.842;2023-12-14T02:25:52;98.35;;;48.45;;
23290;SDS011;11814;44.686;10.842;2023-12-14T02:28:17;97.97;;;48.88;;
23290;SDS011;11814;44.686;10.842;2023-12-14T02:30:43;86.75;;;44.67;;
23290;SDS011;11814;44.686;10.842;2023-12-14T02:33:09;87.80;;;45.78;;
23290;SDS011;11814;44.686;10.842;2023-12-14T02:35:34;85.35;;;45.42;;
23290;SDS011;11814;44.686;10.842;2023-12-14T02:38:00;90.72;;;47.78;;
23290;SDS011;11814;44.686;10.842;2023-12-14T02:40:26;86.65;;;46.33;;
23290;SDS011;11814;44.686;10.842;2023-12-14T02:42:51;86.00;;;45.70;;
23290;SDS011;11814;44.686;10.842;2023-12-14T02:45:17;83.18;;;43.92;;
23290;SDS011;11814;44.686;10.842;2023-12-14T02:47:43;77.95;;;42.25;;
23290;SDS011;11814;44.686;10.842;2023-12-14T02:50:08;82.15;;;41.05;;
23290;SDS011;11814;44.686;10.842;2023-12-14T02:52:34;78.78;;;40.88;;
23290;SDS011;11814;44.686;10.842;2023-12-14T02:55:00;84.45;;;41.65;;
23290;SDS011;11814;44.686;10.842;2023-12-14T02:57:26;100.93;;;45.45;;
23290;SDS011;11814;44.686;10.842;2023-12-14T02:59:51;95.57;;;43.58;;
23290;SDS011;11814;44.686;10.842;2023-12-14T03:02:17;95.30;;;44.28;;
23290;SDS011;11814;44.686;10.842;2023-12-14T03:04:43;97.13;;;45.20;;
23290;SDS011;11814;44.686;10.842;2023-12-14T03:07:08;93.53;;;42.83;;
23290;SDS011;11814;44.686;10.842;2023-12-14T03:09:34;93.65;;;43.53;;
23290;SDS011;11814;44.686;10.842;2023-12-14T03:12:00;99.82;;;45.13;;
23290;SDS011;11814;44.686;10.842;2023-12-14T03:14:31;105.57;;;45.10;;
23290;SDS011;11814;44.686;10.842;2023-12-14T03:16:57;98.47;;;44.47;;
23290;SDS011;11814;44.686;10.842;2023-12-14T03:19:23;91.78;;;43.40;;
23290;SDS011;11814;44.686;10.842;2023-12-14T03:21:48;95.35;;;42.92;;
23290;SDS011;11814;44.686;10.842;2023-12-14T03:24:14;89.75;;;40.22;;
23290;SDS011;11814;44.686;10.842;2023-12-14T03:26:40;89.90;;;38.97;;
23290;SDS011;11814;44.686;10.842;2023-12-14T03:29:05;87.63;;;39.58;;
23290;SDS011;11814;44.686;10.842;2023-12-14T03:31:32;83.38;;;39.15;;
23290;SDS011;11814;44.686;10.842;2023-12-14T03:33:58;78.68;;;35.17;;
23290;SDS011;11814;44.686;10.842;2023-12-14T03:36:24;83.78;;;38.70;;
23290;SDS011;11814;44.686;10.842;2023-12-14T03:38:51;83.50;;;37.17;;
23290;SDS011;11814;44.686;10.842;2023-12-14T03:41:17;84.18;;;37.90;;
23290;SDS011;11814;44.686;10.842;2023-12-14T03:43:42;86.53;;;37.22;;
23290;SDS011;11814;44.686;10.842;2023-12-14T03:46:09;81.97;;;36.85;;
23290;SDS011;11814;44.686;10.842;2023-12-14T03:48:35;79.28;;;35.10;;
23290;SDS011;11814;44.686;10.842;2023-12-14T03:51:04;74.57;;;35.65;;
23290;SDS011;11814;44.686;10.842;2023-12-14T03:53:30;79.53;;;35.78;;
23290;SDS011;11814;44.686;10.842;2023-12-14T03:55:57;83.30;;;36.17;;
23290;SDS011;11814;44.686;10.842;2023-12-14T03:58:23;77.25;;;35.10;;
23290;SDS011;11814;44.686;10.842;2023-12-14T04:00:48;80.13;;;35.70;;
23290;SDS011;11814;44.686;10.842;2023-12-14T04:03:14;80.07;;;34.83;;
23290;SDS011;11814;44.686;10.842;2023-12-14T04:05:40;80.53;;;35.78;;
23290;SDS011;11814;44.686;10.842;2023-12-14T04:08:05;79.22;;;35.25;;
23290;SDS011;11814;44.686;10.842;2023-12-14T04:10:31;80.00;;;38.60;;
23290;SDS011;11814;44.686;10.842;2023-12-14T04:12:56;80.50;;;37.28;;
23290;SDS011;11814;44.686;10.842;2023-12-14T04:15:22;78.57;;;35.10;;
23290;SDS011;11814;44.686;10.842;2023-12-14T04:17:48;78.30;;;35.53;;
23290;SDS011;11814;44.686;10.842;2023-12-14T04:20:13;79.53;;;35.85;;
23290;SDS011;11814;44.686;10.842;2023-12-14T04:22:41;78.53;;;35.17;;
23290;SDS011;11814;44.686;10.842;2023-12-14T04:25:08;79.03;;;36.50;;
23290;SDS011;11814;44.686;10.842;2023-12-14T04:27:33;85.50;;;36.22;;
23290;SDS011;11814;44.686;10.842;2023-12-14T04:29:59;78.93;;;35.20;;
23290;SDS011;11814;44.686;10.842;2023-12-14T04:32:24;83.00;;;36.85;;
23290;SDS011;11814;44.686;10.842;2023-12-14T04:34:50;76.72;;;35.38;;
23290;SDS011;11814;44.686;10.842;2023-12-14T04:37:16;73.20;;;34.47;;
23290;SDS011;11814;44.686;10.842;2023-12-14T04:39:41;74.28;;;34.22;;
23290;SDS011;11814;44.686;10.842;2023-12-14T04:42:07;69.20;;;33.10;;
23290;SDS011;11814;44.686;10.842;2023-12-14T04:44:33;65.95;;;32.25;;
23290;SDS011;11814;44.686;10.842;2023-12-14T04:46:58;69.97;;;32.63;;
23290;SDS011;11814;44.686;10.842;2023-12-14T04:49:24;71.50;;;32.90;;
23290;SDS011;11814;44.686;10.842;2023-12-14T04:51:50;60.22;;;31.73;;
23290;SDS011;11814;44.686;10.842;2023-12-14T04:54:15;67.00;;;31.60;;
23290;SDS011;11814;44.686;10.842;2023-12-14T04:56:41;62.45;;;30.98;;
23290;SDS011;11814;44.686;10.842;2023-12-14T04:59:09;60.33;;;31.67;;
23290;SDS011;11814;44.686;10.842;2023-12-14T05:01:35;66.53;;;32.25;;
23290;SDS011;11814;44.686;10.842;2023-12-14T05:04:00;59.97;;;32.15;;
23290;SDS011;11814;44.686;10.842;2023-12-14T05:06:26;68.45;;;35.13;;
23290;SDS011;11814;44.686;10.842;2023-12-14T05:08:51;63.65;;;34.88;;
23290;SDS011;11814;44.686;10.842;2023-12-14T05:11:17;71.15;;;36.88;;
23290;SDS011;11814;44.686;10.842;2023-12-14T05:13:43;61.42;;;36.10;;
23290;SDS011;11814;44.686;10.842;2023-12-14T05:16:12;68.53;;;36.90;;
23290;SDS011;11814;44.686;10.842;2023-12-14T05:18:38;70.28;;;37.55;;
23290;SDS011;11814;44.686;10.842;2023-12-14T05:21:04;66.32;;;38.42;;
23290;SDS011;11814;44.686;10.842;2023-12-14T05:23:30;72.47;;;41.20;;
23290;SDS011;11814;44.686;10.842;2023-12-14T05:25:56;77.15;;;43.22;;
23290;SDS011;11814;44.686;10.842;2023-12-14T05:28:21;73.13;;;42.55;;
23290;SDS011;11814;44.686;10.842;2023-12-14T05:30:47;79.60;;;45.58;;
23290;SDS011;11814;44.686;10.842;2023-12-14T05:33:13;74.50;;;42.08;;
23290;SDS011;11814;44.686;10.842;2023-12-14T05:35:39;76.03;;;42.25;;
23290;SDS011;11814;44.686;10.842;2023-12-14T05:38:04;66.13;;;40.13;;
23290;SDS011;11814;44.686;10.842;2023-12-14T05:40:30;72.85;;;40.63;;
23290;SDS011;11814;44.686;10.842;2023-12-14T05:42:56;67.35;;;39.85;;
23290;SDS011;11814;44.686;10.842;2023-12-14T05:45:22;73.18;;;41.70;;
23290;SDS011;11814;44.686;10.842;2023-12-14T05:47:48;68.95;;;40.90;;
23290;SDS011;11814;44.686;10.842;2023-12-14T05:50:14;69.28;;;40.58;;
23290;SDS011;11814;44.686;10.842;2023-12-14T05:52:39;70.47;;;41.45;;
23290;SDS011;11814;44.686;10.842;2023-12-14T05:55:07;64.72;;;39.63;;
23290;SDS011;11814;44.686;10.842;2023-12-14T05:57:35;72.20;;;41.20;;
23290;SDS011;11814;44.686;10.842;2023-12-14T06:00:01;67.28;;;39.15;;
23290;SDS011;11814;44.686;10.842;2023-12-14T06:02:28;60.53;;;37.42;;
23290;SDS011;11814;44.686;10.842;2023-12-14T06:04:53;61.38;;;36.47;;
23290;SDS011;11814;44.686;10.842;2023-12-14T06:07:19;62.00;;;37.13;;
23290;SDS011;11814;44.686;10.842;2023-12-14T06:09:44;62.22;;;37.08;;
23290;SDS011;11814;44.686;10.842;2023-12-14T06:12:10;67.40;;;39.35;;
23290;SDS011;11814;44.686;10.842;2023-12-14T06:14:36;62.55;;;36.72;;
23290;SDS011;11814;44.686;10.842;2023-12-14T06:17:01;69.68;;;39.75;;
23290;SDS011;11814;44.686;10.842;2023-12-14T06:19:27;67.47;;;37.90;;
23290;SDS011;11814;44.686;10.842;2023-12-14T06:21:53;63.08;;;38.83;;
23290;SDS011;11814;44.686;10.842;2023-12-14T06:24:18;71.53;;;41.05;;
23290;SDS011;11814;44.686;10.842;2023-12-14T06:26:46;67.47;;;38.70;;
23290;SDS011;11814;44.686;10.842;2023-12-14T06:29:11;65.07;;;39.50;;
23290;SDS011;11814;44.686;10.842;2023-12-14T06:31:38;67.63;;;40.03;;
23290;SDS011;11814;44.686;10.842;2023-12-14T06:34:04;70.32;;;40.67;;
23290;SDS011;11814;44.686;10.842;2023-12-14T06:36:33;69.63;;;40.78;;
23290;SDS011;11814;44.686;10.842;2023-12-14T06:38:59;68.53;;;41.40;;
23290;SDS011;11814;44.686;10.842;2023-12-14T06:41:26;72.68;;;43.50;;
23290;SDS011;11814;44.686;10.842;2023-12-14T06:43:53;64.55;;;41.20;;
23290;SDS011;11814;44.686;10.842;2023-12-14T06:46:19;77.65;;;44.53;;
23290;SDS011;11814;44.686;10.842;2023-12-14T06:48:45;79.75;;;43.88;;
23290;SDS011;11814;44.686;10.842;2023-12-14T06:51:12;70.28;;;41.78;;
23290;SDS011;11814;44.686;10.842;2023-12-14T06:53:41;75.07;;;44.30;;
23290;SDS011;11814;44.686;10.842;2023-12-14T06:56:08;73.95;;;44.38;;
23290;SDS011;11814;44.686;10.842;2023-12-14T06:58:36;74.50;;;43.75;;
23290;SDS011;11814;44.686;10.842;2023-12-14T07:01:02;73.25;;;42.90;;
23290;SDS011;11814;44.686;10.842;2023-12-14T07:03:28;68.30;;;42.80;;
23290;SDS011;11814;44.686;10.842;2023-12-14T07:05:53;77.07;;;45.70;;
23290;SDS011;11814;44.686;10.842;2023-12-14T07:08:19;81.72;;;46.50;;
23290;SDS011;11814;44.686;10.842;2023-12-14T07:10:44;83.45;;;47.00;;
23290;SDS011;11814;44.686;10.842;2023-12-14T07:13:10;88.30;;;48.80;;
23290;SDS011;11814;44.686;10.842;2023-12-14T07:15:36;77.95;;;46.97;;
23290;SDS011;11814;44.686;10.842;2023-12-14T07:18:01;85.57;;;49.35;;
23290;SDS011;11814;44.686;10.842;2023-12-14T07:20:27;87.50;;;49.58;;
23290;SDS011;11814;44.686;10.842;2023-12-14T07:22:53;84.22;;;48.63;;
23290;SDS011;11814;44.686;10.842;2023-12-14T07:25:18;85.00;;;48.25;;
23290;SDS011;11814;44.686;10.842;2023-12-14T07:27:44;86.43;;;50.80;;
23290;SDS011;11814;44.686;10.842;2023-12-14T07:30:11;83.88;;;50.47;;
23290;SDS011;11814;44.686;10.842;2023-12-14T07:32:37;84.28;;;50.72;;
23290;SDS011;11814;44.686;10.842;2023-12-14T07:35:03;84.18;;;51.85;;
23290;SDS011;11814;44.686;10.842;2023-12-14T07:37:29;90.13;;;52.70;;
23290;SDS011;11814;44.686;10.842;2023-12-14T07:39:55;87.40;;;51.60;;
23290;SDS011;11814;44.686;10.842;2023-12-14T07:42:21;90.22;;;52.30;;
23290;SDS011;11814;44.686;10.842;2023-12-14T07:44:46;89.00;;;53.72;;
23290;SDS011;11814;44.686;10.842;2023-12-14T07:47:12;80.90;;;51.50;;
23290;SDS011;11814;44.686;10.842;2023-12-14T07:49:38;84.20;;;51.85;;
23290;SDS011;11814;44.686;10.842;2023-12-14T07:52:04;86.68;;;53.10;;
23290;SDS011;11814;44.686;10.842;2023-12-14T07:54:30;92.53;;;55.15;;
23290;SDS011;11814;44.686;10.842;2023-12-14T07:56:55;95.97;;;56.05;;
23290;SDS011;11814;44.686;10.842;2023-12-14T07:59:21;89.35;;;52.67;;
23290;SDS011;11814;44.686;10.842;2023-12-14T08:01:47;94.50;;;54.33;;
23290;SDS011;11814;44.686;10.842;2023-12-14T08:04:13;91.30;;;54.55;;
23290;SDS011;11814;44.686;10.842;2023-12-14T08:06:39;85.95;;;52.33;;
23290;SDS011;11814;44.686;10.842;2023-12-14T08:09:05;90.97;;;54.00;;
23290;SDS011;11814;44.686;10.842;2023-12-14T08:11:31;86.90;;;52.85;;
23290;SDS011;11814;44.686;10.842;2023-12-14T08:13:57;86.30;;;51.95;;
23290;SDS011;11814;44.686;10.842;2023-12-14T08:16:23;87.63;;;53.78;;
23290;SDS011;11814;44.686;10.842;2023-12-14T08:18:49;88.22;;;53.92;;
23290;SDS011;11814;44.686;10.842;2023-12-14T08:21:15;84.95;;;53.05;;
23290;SDS011;11814;44.686;10.842;2023-12-14T08:23:41;94.32;;;54.45;;
23290;SDS011;11814;44.686;10.842;2023-12-14T08:26:07;85.88;;;52.85;;
23290;SDS011;11814;44.686;10.842;2023-12-14T08:28:35;98.75;;;57.97;;
23290;SDS011;11814;44.686;10.842;2023-12-14T08:31:01;92.78;;;54.60;;
23290;SDS011;11814;44.686;10.842;2023-12-14T08:33:30;84.63;;;50.40;;
23290;SDS011;11814;44.686;10.842;2023-12-14T08:35:55;90.32;;;54.45;;
23290;SDS011;11814;44.686;10.842;2023-12-14T08:38:21;89.97;;;53.47;;
23290;SDS011;11814;44.686;10.842;2023-12-14T08:40:47;80.70;;;49.97;;
23290;SDS011;11814;44.686;10.842;2023-12-14T08:43:13;81.20;;;51.08;;
23290;SDS011;11814;44.686;10.842;2023-12-14T08:45:39;85.53;;;51.75;;
23290;SDS011;11814;44.686;10.842;2023-12-14T08:48:05;88.13;;;51.20;;
23290;SDS011;11814;44.686;10.842;2023-12-14T08:50:31;85.10;;;51.03;;
23290;SDS011;11814;44.686;10.842;2023-12-14T08:52:56;83.53;;;50.58;;
23290;SDS011;11814;44.686;10.842;2023-12-14T08:55:25;81.35;;;49.88;;
23290;SDS011;11814;44.686;10.842;2023-12-14T08:57:51;84.25;;;52.03;;
23290;SDS011;11814;44.686;10.842;2023-12-14T09:00:17;76.25;;;48.42;;
23290;SDS011;11814;44.686;10.842;2023-12-14T09:02:46;77.57;;;48.80;;
23290;SDS011;11814;44.686;10.842;2023-12-14T09:05:12;78.40;;;48.92;;
23290;SDS011;11814;44.686;10.842;2023-12-14T09:07:38;82.00;;;50.15;;
23290;SDS011;11814;44.686;10.842;2023-12-14T09:10:04;83.53;;;51.00;;
23290;SDS011;11814;44.686;10.842;2023-12-14T09:12:31;84.95;;;51.67;;
23290;SDS011;11814;44.686;10.842;2023-12-14T09:14:58;78.95;;;50.05;;
23290;SDS011;11814;44.686;10.842;2023-12-14T09:17:24;85.82;;;52.13;;
23290;SDS011;11814;44.686;10.842;2023-12-14T09:19:49;84.57;;;51.20;;
23290;SDS011;11814;44.686;10.842;2023-12-14T09:22:15;85.18;;;52.78;;
23290;SDS011;11814;44.686;10.842;2023-12-14T09:24:41;77.85;;;48.88;;
23290;SDS011;11814;44.686;10.842;2023-12-14T09:27:06;81.25;;;49.53;;
23290;SDS011;11814;44.686;10.842;2023-12-14T09:29:32;75.97;;;48.22;;
23290;SDS011;11814;44.686;10.842;2023-12-14T09:31:57;75.75;;;46.30;;
23290;SDS011;11814;44.686;10.842;2023-12-14T09:34:23;76.47;;;45.35;;
23290;SDS011;11814;44.686;10.842;2023-12-14T09:36:49;73.90;;;46.10;;
23290;SDS011;11814;44.686;10.842;2023-12-14T09:39:15;73.30;;;46.10;;
23290;SDS011;11814;44.686;10.842;2023-12-14T09:41:40;77.75;;;47.05;;
23290;SDS011;11814;44.686;10.842;2023-12-14T09:44:06;75.85;;;46.22;;
23290;SDS011;11814;44.686;10.842;2023-12-14T09:46:36;76.82;;;45.60;;
23290;SDS011;11814;44.686;10.842;2023-12-14T09:49:03;78.82;;;48.05;;
23290;SDS011;11814;44.686;10.842;2023-12-14T09:51:29;78.30;;;47.00;;
23290;SDS011;11814;44.686;10.842;2023-12-14T09:53:55;71.57;;;45.22;;
23290;SDS011;11814;44.686;10.842;2023-12-14T09:56:25;76.32;;;47.25;;
23290;SDS011;11814;44.686;10.842;2023-12-14T09:58:50;76.35;;;45.53;;
23290;SDS011;11814;44.686;10.842;2023-12-14T10:01:23;76.25;;;47.10;;
23290;SDS011;11814;44.686;10.842;2023-12-14T10:03:49;75.05;;;45.97;;
23290;SDS011;11814;44.686;10.842;2023-12-14T10:06:17;72.32;;;47.05;;
23290;SDS011;11814;44.686;10.842;2023-12-14T10:08:53;75.13;;;46.58;;
23290;SDS011;11814;44.686;10.842;2023-12-14T10:11:21;76.53;;;46.50;;
23290;SDS011;11814;44.686;10.842;2023-12-14T10:13:47;75.68;;;47.28;;
23290;SDS011;11814;44.686;10.842;2023-12-14T10:16:13;73.90;;;46.30;;
23290;SDS011;11814;44.686;10.842;2023-12-14T10:18:51;76.05;;;47.67;;
23290;SDS011;11814;44.686;10.842;2023-12-14T10:21:16;81.72;;;49.22;;
23290;SDS011;11814;44.686;10.842;2023-12-14T10:23:44;76.28;;;47.75;;
23290;SDS011;11814;44.686;10.842;2023-12-14T10:26:11;81.13;;;49.20;;
23290;SDS011;11814;44.686;10.842;2023-12-14T10:28:39;77.15;;;50.15;;
23290;SDS011;11814;44.686;10.842;2023-12-14T10:31:05;85.85;;;49.70;;
23290;SDS011;11814;44.686;10.842;2023-12-14T10:33:30;84.63;;;50.95;;
23290;SDS011;11814;44.686;10.842;2023-12-14T10:35:56;77.85;;;49.10;;
23290;SDS011;11814;44.686;10.842;2023-12-14T10:38:22;84.53;;;49.38;;
23290;SDS011;11814;44.686;10.842;2023-12-14T10:40:50;82.53;;;48.95;;
23290;SDS011;11814;44.686;10.842;2023-12-14T10:43:16;75.35;;;48.30;;
23290;SDS011;11814;44.686;10.842;2023-12-14T10:45:43;80.03;;;50.08;;
23290;SDS011;11814;44.686;10.842;2023-12-14T10:48:10;77.70;;;49.33;;
23290;SDS011;11814;44.686;10.842;2023-12-14T10:50:38;80.03;;;48.83;;
23290;SDS011;11814;44.686;10.842;2023-12-14T10:53:07;73.75;;;48.30;;
23290;SDS011;11814;44.686;10.842;2023-12-14T10:55:36;76.20;;;48.97;;
23290;SDS011;11814;44.686;10.842;2023-12-14T10:58:05;79.78;;;50.20;;
23290;SDS011;11814;44.686;10.842;2023-12-14T11:00:33;74.68;;;47.45;;
23290;SDS011;11814;44.686;10.842;2023-12-14T11:02:59;76.05;;;47.40;;
23290;SDS011;11814;44.686;10.842;2023-12-14T11:05:26;75.65;;;47.17;;
23290;SDS011;11814;44.686;10.842;2023-12-14T11:08:01;71.13;;;46.30;;
23290;SDS011;11814;44.686;10.842;2023-12-14T11:10:43;75.03;;;48.63;;
23290;SDS011;11814;44.686;10.842;2023-12-14T11:13:20;68.47;;;45.28;;
23290;SDS011;11814;44.686;10.842;2023-12-14T11:15:51;69.22;;;44.67;;
23290;SDS011;11814;44.686;10.842;2023-12-14T11:23:16;66.97;;;44.72;;
23290;SDS011;11814;44.686;10.842;2023-12-14T11:25:48;71.80;;;45.28;;
23290;SDS011;11814;44.686;10.842;2023-12-14T11:28:16;68.15;;;45.17;;
23290;SDS011;11814;44.686;10.842;2023-12-14T11:30:43;69.13;;;42.95;;
23290;SDS011;11814;44.686;10.842;2023-12-14T11:33:10;68.68;;;44.28;;
23290;SDS011;11814;44.686;10.842;2023-12-14T11:35:37;70.22;;;45.03;;
23290;SDS011;11814;44.686;10.842;2023-12-14T11:38:02;68.55;;;44.20;;
23290;SDS011;11814;44.686;10.842;2023-12-14T11:40:35;70.03;;;43.20;;
23290;SDS011;11814;44.686;10.842;2023-12-14T11:43:04;67.78;;;43.13;;
23290;SDS011;11814;44.686;10.842;2023-12-14T11:45:33;60.17;;;40.17;;
23290;SDS011;11814;44.686;10.842;2023-12-14T11:48:09;61.45;;;41.35;;
23290;SDS011;11814;44.686;10.842;2023-12-14T11:50:37;62.83;;;42.58;;
23290;SDS011;11814;44.686;10.842;2023-12-14T11:53:03;63.15;;;40.47;;
23290;SDS011;11814;44.686;10.842;2023-12-14T11:55:30;63.05;;;40.15;;
23290;SDS011;11814;44.686;10.842;2023-12-14T11:57:56;52.58;;;37.40;;
23290;SDS011;11814;44.686;10.842;2023-12-14T12:00:23;58.10;;;37.92;;
23290;SDS011;11814;44.686;10.842;2023-12-14T12:02:50;60.78;;;40.17;;
23290;SDS011;11814;44.686;10.842;2023-12-14T12:05:16;56.10;;;38.60;;
23290;SDS011;11814;44.686;10.842;2023-12-14T12:07:43;62.80;;;41.30;;
23290;SDS011;11814;44.686;10.842;2023-12-14T12:10:12;60.85;;;40.20;;
23290;SDS011;11814;44.686;10.842;2023-12-14T12:12:37;63.15;;;41.00;;
23290;SDS011;11814;44.686;10.842;2023-12-14T12:15:03;60.58;;;40.78;;
23290;SDS011;11814;44.686;10.842;2023-12-14T12:17:29;57.78;;;39.33;;
23290;SDS011;11814;44.686;10.842;2023-12-14T12:20:02;54.00;;;36.90;;
23290;SDS011;11814;44.686;10.842;2023-12-14T12:22:29;59.30;;;40.50;;
23290;SDS011;11814;44.686;10.842;2023-12-14T12:24:55;57.08;;;37.67;;
23290;SDS011;11814;44.686;10.842;2023-12-14T12:27:21;51.45;;;36.58;;
23290;SDS011;11814;44.686;10.842;2023-12-14T12:29:48;51.97;;;35.25;;
23290;SDS011;11814;44.686;10.842;2023-12-14T12:32:14;48.22;;;34.83;;
23290;SDS011;11814;44.686;10.842;2023-12-14T12:34:40;48.75;;;33.30;;
23290;SDS011;11814;44.686;10.842;2023-12-14T12:37:05;42.03;;;33.13;;
23290;SDS011;11814;44.686;10.842;2023-12-14T12:39:31;44.72;;;32.95;;
23290;SDS011;11814;44.686;10.842;2023-12-14T12:41:56;43.45;;;32.25;;
23290;SDS011;11814;44.686;10.842;2023-12-14T12:44:22;42.22;;;31.95;;
23290;SDS011;11814;44.686;10.842;2023-12-14T12:46:48;38.20;;;29.58;;
23290;SDS011;11814;44.686;10.842;2023-12-14T12:49:13;34.92;;;26.95;;
23290;SDS011;11814;44.686;10.842;2023-12-14T12:51:39;37.50;;;28.40;;
23290;SDS011;11814;44.686;10.842;2023-12-14T12:54:04;38.80;;;29.23;;
23290;SDS011;11814;44.686;10.842;2023-12-14T12:56:30;38.97;;;28.15;;
23290;SDS011;11814;44.686;10.842;2023-12-14T12:58:56;36.92;;;28.65;;
23290;SDS011;11814;44.686;10.842;2023-12-14T13:01:21;38.53;;;28.77;;
23290;SDS011;11814;44.686;10.842;2023-12-14T13:06:17;35.53;;;27.48;;
23290;SDS011;11814;44.686;10.842;2023-12-14T13:08:43;35.13;;;26.90;;
23290;SDS011;11814;44.686;10.842;2023-12-14T13:11:09;35.95;;;26.95;;
23290;SDS011;11814;44.686;10.842;2023-12-14T13:13:34;37.42;;;28.17;;
23290;SDS011;11814;44.686;10.842;2023-12-14T13:16:00;35.03;;;27.95;;
23290;SDS011;11814;44.686;10.842;2023-12-14T13:18:25;40.03;;;29.50;;
23290;SDS011;11814;44.686;10.842;2023-12-14T13:20:51;38.08;;;28.42;;
23290;SDS011;11814;44.686;10.842;2023-12-14T13:23:17;40.08;;;28.98;;
23290;SDS011;11814;44.686;10.842;2023-12-14T13:25:42;39.80;;;29.08;;
23290;SDS011;11814;44.686;10.842;2023-12-14T13:28:09;37.00;;;29.02;;
23290;SDS011;11814;44.686;10.842;2023-12-14T13:30:35;44.15;;;31.83;;
23290;SDS011;11814;44.686;10.842;2023-12-14T13:33:01;41.92;;;31.17;;
23290;SDS011;11814;44.686;10.842;2023-12-14T13:35:28;41.15;;;30.50;;
23290;SDS011;11814;44.686;10.842;2023-12-14T13:37:54;45.15;;;32.67;;
23290;SDS011;11814;44.686;10.842;2023-12-14T13:40:20;40.53;;;30.55;;
23290;SDS011;11814;44.686;10.842;2023-12-14T13:42:47;46.50;;;31.73;;
23290;SDS011;11814;44.686;10.842;2023-12-14T13:45:13;45.80;;;32.83;;
23290;SDS011;11814;44.686;10.842;2023-12-14T13:47:39;43.60;;;32.90;;
23290;SDS011;11814;44.686;10.842;2023-12-14T13:50:04;44.17;;;33.20;;
23290;SDS011;11814;44.686;10.842;2023-12-14T13:52:30;45.97;;;33.03;;
23290;SDS011;11814;44.686;10.842;2023-12-14T13:54:56;47.47;;;33.63;;
23290;SDS011;11814;44.686;10.842;2023-12-14T13:57:24;46.13;;;33.65;;
23290;SDS011;11814;44.686;10.842;2023-12-14T13:59:49;45.22;;;32.45;;
23290;SDS011;11814;44.686;10.842;2023-12-14T14:02:15;53.42;;;35.08;;
23290;SDS011;11814;44.686;10.842;2023-12-14T14:04:40;55.65;;;38.60;;
23290;SDS011;11814;44.686;10.842;2023-12-14T14:07:06;57.28;;;38.72;;
23290;SDS011;11814;44.686;10.842;2023-12-14T14:09:32;56.55;;;39.13;;
23290;SDS011;11814;44.686;10.842;2023-12-14T14:11:58;61.40;;;42.67;;